sensor_id;sensor_type;location;lat;lon;timestamp;pressure;altitude;pressure_sealevel;temperature;humidity
74065;BME280;62421;51.412;5.432;2022-10-16T00:00:30;100906.44;;;10.55;100.00
74065;BME280;62421;51.412;5.432;2022-10-16T00:02:55;100911.81;;;10.55;100.00
74065;BME280;62421;51.412;5.432;2022-10-16T00:05:21;100910.97;;;10.55;100.00
74065;BME280;62421;51.412;5.432;2022-10-16T00:07:46;100912.81;;;10.54;100.00
74065;BME280;62421;51.412;5.432;2022-10-16T00:10:11;100910.22;;;10.53;100.00
74065;BME280;62421;51.412;5.432;2022-10-16T00:12:37;100912.03;;;10.52;100.00
74065;BME280;62421;51.412;5.432;2022-10-16T00:15:02;100904.09;;;10.51;100.00
74065;BME280;62421;51.412;5.432;2022-10-16T00:17:29;100901.50;;;10.49;100.00
74065;BME280;62421;51.412;5.432;2022-10-16T00:19:55;100907.84;;;10.48;100.00
74065;BME280;62421;51.412;5.432;2022-10-16T00:22:21;100908.94;;;10.45;100.00
74065;BME280;62421;51.412;5.432;2022-10-16T00:24:47;100905.47;;;10.43;100.00
74065;BME280;62421;51.412;5.432;2022-10-16T00:27:12;100896.69;;;10.41;100.00
74065;BME280;62421;51.412;5.432;2022-10-16T00:29:37;100905.03;;;10.37;100.00
74065;BME280;62421;51.412;5.432;2022-10-16T00:32:03;100900.84;;;10.33;100.00
74065;BME280;62421;51.412;5.432;2022-10-16T00:34:28;100898.53;;;10.27;100.00
74065;BME280;62421;51.412;5.432;2022-10-16T00:36:53;100904.22;;;10.22;100.00
74065;BME280;62421;51.412;5.432;2022-10-16T00:39:19;100901.72;;;10.19;100.00
74065;BME280;62421;51.412;5.432;2022-10-16T00:41:44;100916.31;;;10.15;100.00
74065;BME280;62421;51.412;5.432;2022-10-16T00:47:17;100919.53;;;10.07;100.00
74065;BME280;62421;51.412;5.432;2022-10-16T00:49:43;100914.25;;;10.05;100.00
74065;BME280;62421;51.412;5.432;2022-10-16T00:52:10;100925.22;;;10.02;100.00
74065;BME280;62421;51.412;5.432;2022-10-16T00:54:35;100921.84;;;9.99;100.00
74065;BME280;62421;51.412;5.432;2022-10-16T00:57:03;100919.28;;;9.97;100.00
74065;BME280;62421;51.412;5.432;2022-10-16T00:59:32;100918.41;;;9.97;100.00
74065;BME280;62421;51.412;5.432;2022-10-16T01:01:58;100916.91;;;9.93;100.00
74065;BME280;62421;51.412;5.432;2022-10-16T01:04:25;100915.28;;;9.90;100.00
74065;BME280;62421;51.412;5.432;2022-10-16T01:12:17;100907.19;;;9.77;100.00
74065;BME280;62421;51.412;5.432;2022-10-16T01:14:56;100901.16;;;9.74;100.00
74065;BME280;62421;51.412;5.432;2022-10-16T01:23:10;100905.22;;;9.67;100.00
74065;BME280;62421;51.412;5.432;2022-10-16T01:28:29;100908.94;;;9.64;100.00
74065;BME280;62421;51.412;5.432;2022-10-16T01:30:59;100913.56;;;9.62;100.00
74065;BME280;62421;51.412;5.432;2022-10-16T01:33:35;100912.69;;;9.61;100.00
74065;BME280;62421;51.412;5.432;2022-10-16T01:36:17;100913.66;;;9.60;100.00
74065;BME280;62421;51.412;5.432;2022-10-16T01:38:46;100909.13;;;9.61;100.00
74065;BME280;62421;51.412;5.432;2022-10-16T01:43:46;100927.81;;;9.62;100.00
74065;BME280;62421;51.412;5.432;2022-10-16T01:46:16;100915.06;;;9.66;100.00
74065;BME280;62421;51.412;5.432;2022-10-16T01:48:43;100916.38;;;9.73;100.00
74065;BME280;62421;51.412;5.432;2022-10-16T01:51:10;100911.47;;;9.80;100.00
74065;BME280;62421;51.412;5.432;2022-10-16T01:53:37;100913.00;;;9.84;100.00
74065;BME280;62421;51.412;5.432;2022-10-16T01:56:07;100920.06;;;9.85;100.00
74065;BME280;62421;51.412;5.432;2022-10-16T01:58:37;100916.44;;;9.86;100.00
74065;BME280;62421;51.412;5.432;2022-10-16T02:01:07;100921.59;;;9.89;100.00
74065;BME280;62421;51.412;5.432;2022-10-16T02:03:35;100923.25;;;9.92;100.00
74065;BME280;62421;51.412;5.432;2022-10-16T02:06:02;100916.13;;;9.91;100.00
74065;BME280;62421;51.412;5.432;2022-10-16T02:08:29;100924.28;;;9.89;100.00
74065;BME280;62421;51.412;5.432;2022-10-16T02:10:57;100937.06;;;9.86;100.00
74065;BME280;62421;51.412;5.432;2022-10-16T02:13:30;100922.13;;;9.81;100.00
74065;BME280;62421;51.412;5.432;2022-10-16T02:15:58;100916.09;;;9.78;100.00
74065;BME280;62421;51.412;5.432;2022-10-16T02:18:23;100909.19;;;9.74;100.00
74065;BME280;62421;51.412;5.432;2022-10-16T02:21:06;100919.28;;;9.70;100.00
74065;BME280;62421;51.412;5.432;2022-10-16T02:23:51;100910.47;;;9.68;100.00
74065;BME280;62421;51.412;5.432;2022-10-16T02:26:36;100908.84;;;9.66;100.00
74065;BME280;62421;51.412;5.432;2022-10-16T02:29:08;100912.56;;;9.63;100.00
74065;BME280;62421;51.412;5.432;2022-10-16T02:31:41;100916.31;;;9.60;100.00
74065;BME280;62421;51.412;5.432;2022-10-16T02:34:09;100906.66;;;9.58;100.00
74065;BME280;62421;51.412;5.432;2022-10-16T02:36:37;100905.06;;;9.55;100.00
74065;BME280;62421;51.412;5.432;2022-10-16T02:39:04;100922.94;;;9.55;100.00
74065;BME280;62421;51.412;5.432;2022-10-16T02:41:31;100917.78;;;9.52;100.00
74065;BME280;62421;51.412;5.432;2022-10-16T02:43:56;100916.94;;;9.51;100.00
74065;BME280;62421;51.412;5.432;2022-10-16T02:46:22;100924.13;;;9.51;100.00
74065;BME280;62421;51.412;5.432;2022-10-16T02:48:47;100918.75;;;9.51;100.00
74065;BME280;62421;51.412;5.432;2022-10-16T02:51:12;100922.47;;;9.48;100.00
74065;BME280;62421;51.412;5.432;2022-10-16T02:53:38;100926.13;;;9.47;100.00
74065;BME280;62421;51.412;5.432;2022-10-16T02:56:03;100921.91;;;9.43;100.00
74065;BME280;62421;51.412;5.432;2022-10-16T02:58:29;100925.66;;;9.40;100.00
74065;BME280;62421;51.412;5.432;2022-10-16T03:00:54;100920.38;;;9.39;100.00
74065;BME280;62421;51.412;5.432;2022-10-16T03:03:20;100926.81;;;9.36;100.00
74065;BME280;62421;51.412;5.432;2022-10-16T03:05:45;100930.56;;;9.34;100.00
74065;BME280;62421;51.412;5.432;2022-10-16T03:08:12;100937.72;;;9.33;100.00
74065;BME280;62421;51.412;5.432;2022-10-16T03:10:37;100931.41;;;9.34;100.00
74065;BME280;62421;51.412;5.432;2022-10-16T03:13:03;100933.13;;;9.35;100.00
74065;BME280;62421;51.412;5.432;2022-10-16T03:15:28;100934.94;;;9.35;100.00
74065;BME280;62421;51.412;5.432;2022-10-16T03:17:54;100948.25;;;9.36;100.00
74065;BME280;62421;51.412;5.432;2022-10-16T03:20:19;100955.44;;;9.36;100.00
74065;BME280;62421;51.412;5.432;2022-10-16T03:22:45;100952.63;;;9.37;100.00
74065;BME280;62421;51.412;5.432;2022-10-16T03:25:10;100941.84;;;9.39;100.00
74065;BME280;62421;51.412;5.432;2022-10-16T03:27:35;100949.66;;;9.42;100.00
74065;BME280;62421;51.412;5.432;2022-10-16T03:30:02;100956.66;;;9.45;100.00
74065;BME280;62421;51.412;5.432;2022-10-16T03:32:27;100961.06;;;9.46;100.00
74065;BME280;62421;51.412;5.432;2022-10-16T03:34:53;100937.78;;;9.46;100.00
74065;BME280;62421;51.412;5.432;2022-10-16T03:37:19;100940.19;;;9.51;100.00
74065;BME280;62421;51.412;5.432;2022-10-16T03:39:44;100937.09;;;9.57;100.00
74065;BME280;62421;51.412;5.432;2022-10-16T03:42:10;100951.28;;;9.59;100.00
74065;BME280;62421;51.412;5.432;2022-10-16T03:44:35;100965.34;;;9.62;100.00
74065;BME280;62421;51.412;5.432;2022-10-16T03:47:00;100968.69;;;9.66;100.00
74065;BME280;62421;51.412;5.432;2022-10-16T03:49:26;100959.59;;;9.69;100.00
74065;BME280;62421;51.412;5.432;2022-10-16T03:51:51;100972.91;;;9.70;100.00
74065;BME280;62421;51.412;5.432;2022-10-16T03:54:16;100979.78;;;9.74;100.00
74065;BME280;62421;51.412;5.432;2022-10-16T03:56:41;100971.63;;;9.76;100.00
74065;BME280;62421;51.412;5.432;2022-10-16T03:59:07;100974.13;;;9.79;100.00
74065;BME280;62421;51.412;5.432;2022-10-16T04:01:32;100967.72;;;9.81;100.00
74065;BME280;62421;51.412;5.432;2022-10-16T04:03:57;100968.66;;;9.80;100.00
74065;BME280;62421;51.412;5.432;2022-10-16T04:06:23;100966.84;;;9.81;100.00
74065;BME280;62421;51.412;5.432;2022-10-16T04:08:48;100972.09;;;9.82;100.00
74065;BME280;62421;51.412;5.432;2022-10-16T04:11:14;100974.78;;;9.82;100.00
74065;BME280;62421;51.412;5.432;2022-10-16T04:13:39;100976.41;;;9.85;100.00
74065;BME280;62421;51.412;5.432;2022-10-16T04:16:05;100973.72;;;9.85;100.00
74065;BME280;62421;51.412;5.432;2022-10-16T04:18:30;100984.34;;;9.87;100.00
74065;BME280;62421;51.412;5.432;2022-10-16T04:20:55;100987.03;;;9.87;100.00
74065;BME280;62421;51.412;5.432;2022-10-16T04:23:21;100985.31;;;9.86;100.00
74065;BME280;62421;51.412;5.432;2022-10-16T04:25:48;100986.28;;;9.84;100.00
74065;BME280;62421;51.412;5.432;2022-10-16T04:28:13;100970.84;;;9.88;100.00
74065;BME280;62421;51.412;5.432;2022-10-16T04:30:39;100975.38;;;9.88;100.00
74065;BME280;62421;51.412;5.432;2022-10-16T04:33:05;100986.72;;;9.91;100.00
74065;BME280;62421;51.412;5.432;2022-10-16T04:35:30;100990.09;;;9.95;100.00
74065;BME280;62421;51.412;5.432;2022-10-16T04:37:57;100985.69;;;9.94;100.00
74065;BME280;62421;51.412;5.432;2022-10-16T04:40:23;100987.50;;;9.93;100.00
74065;BME280;62421;51.412;5.432;2022-10-16T04:42:48;100991.16;;;9.92;100.00
74065;BME280;62421;51.412;5.432;2022-10-16T04:45:13;100993.16;;;9.89;100.00
74065;BME280;62421;51.412;5.432;2022-10-16T04:47:38;100994.78;;;9.91;100.00
74065;BME280;62421;51.412;5.432;2022-10-16T04:50:04;101000.25;;;9.90;100.00
74065;BME280;62421;51.412;5.432;2022-10-16T04:52:29;101004.88;;;9.88;100.00
74065;BME280;62421;51.412;5.432;2022-10-16T04:54:56;101004.88;;;9.88;100.00
74065;BME280;62421;51.412;5.432;2022-10-16T04:57:25;101006.56;;;9.89;100.00
74065;BME280;62421;51.412;5.432;2022-10-16T04:59:52;101016.84;;;9.82;100.00
74065;BME280;62421;51.412;5.432;2022-10-16T05:02:17;101009.47;;;9.86;100.00
74065;BME280;62421;51.412;5.432;2022-10-16T05:04:42;101012.16;;;9.86;100.00
74065;BME280;62421;51.412;5.432;2022-10-16T05:07:08;101014.63;;;9.89;100.00
74065;BME280;62421;51.412;5.432;2022-10-16T05:09:33;101015.69;;;9.86;100.00
74065;BME280;62421;51.412;5.432;2022-10-16T05:11:59;101030.91;;;9.86;100.00
74065;BME280;62421;51.412;5.432;2022-10-16T05:14:24;101038.97;;;9.86;100.00
74065;BME280;62421;51.412;5.432;2022-10-16T05:16:49;101036.28;;;9.86;100.00
74065;BME280;62421;51.412;5.432;2022-10-16T05:19:15;101044.34;;;9.86;100.00
74065;BME280;62421;51.412;5.432;2022-10-16T05:21:40;101043.66;;;9.82;100.00
74065;BME280;62421;51.412;5.432;2022-10-16T05:24:06;101048.06;;;9.83;100.00
74065;BME280;62421;51.412;5.432;2022-10-16T05:26:31;101037.44;;;9.81;100.00
74065;BME280;62421;51.412;5.432;2022-10-16T05:28:57;101041.19;;;9.79;100.00
74065;BME280;62421;51.412;5.432;2022-10-16T05:31:22;101044.03;;;9.76;100.00
74065;BME280;62421;51.412;5.432;2022-10-16T05:33:47;101039.94;;;9.70;100.00
74065;BME280;62421;51.412;5.432;2022-10-16T05:36:13;101047.22;;;9.68;100.00
74065;BME280;62421;51.412;5.432;2022-10-16T05:38:39;101053.75;;;9.64;100.00
74065;BME280;62421;51.412;5.432;2022-10-16T05:41:05;101060.25;;;9.60;100.00
74065;BME280;62421;51.412;5.432;2022-10-16T05:43:31;101063.00;;;9.58;100.00
74065;BME280;62421;51.412;5.432;2022-10-16T05:46:03;101079.97;;;9.59;100.00
74065;BME280;62421;51.412;5.432;2022-10-16T05:48:29;101080.94;;;9.58;100.00
74065;BME280;62421;51.412;5.432;2022-10-16T05:51:03;101087.06;;;9.60;100.00
74065;BME280;62421;51.412;5.432;2022-10-16T05:53:31;101085.31;;;9.59;100.00
74065;BME280;62421;51.412;5.432;2022-10-16T05:55:57;101097.00;;;9.58;100.00
74065;BME280;62421;51.412;5.432;2022-10-16T05:58:22;101092.50;;;9.58;100.00
74065;BME280;62421;51.412;5.432;2022-10-16T06:01:06;101090.97;;;9.54;100.00
74065;BME280;62421;51.412;5.432;2022-10-16T06:03:33;101100.75;;;9.55;100.00
74065;BME280;62421;51.412;5.432;2022-10-16T06:05:58;101099.88;;;9.55;100.00
74065;BME280;62421;51.412;5.432;2022-10-16T06:08:24;101114.44;;;9.51;100.00
74065;BME280;62421;51.412;5.432;2022-10-16T06:11:03;101111.16;;;9.46;100.00
74065;BME280;62421;51.412;5.432;2022-10-16T06:13:29;101103.13;;;9.46;100.00
74065;BME280;62421;51.412;5.432;2022-10-16T06:15:57;101119.28;;;9.44;100.00
74065;BME280;62421;51.412;5.432;2022-10-16T06:18:22;101113.28;;;9.40;100.00
74065;BME280;62421;51.412;5.432;2022-10-16T06:20:48;101123.78;;;9.43;100.00
74065;BME280;62421;51.412;5.432;2022-10-16T06:23:13;101128.22;;;9.45;100.00
74065;BME280;62421;51.412;5.432;2022-10-16T06:25:39;101121.88;;;9.46;100.00
74065;BME280;62421;51.412;5.432;2022-10-16T06:28:04;101122.47;;;9.51;100.00
74065;BME280;62421;51.412;5.432;2022-10-16T06:30:29;101126.88;;;9.52;100.00
74065;BME280;62421;51.412;5.432;2022-10-16T06:32:54;101128.59;;;9.53;100.00
74065;BME280;62421;51.412;5.432;2022-10-16T06:35:20;101141.91;;;9.54;100.00
74065;BME280;62421;51.412;5.432;2022-10-16T06:37:45;101148.03;;;9.56;100.00
74065;BME280;62421;51.412;5.432;2022-10-16T06:40:10;101158.69;;;9.58;100.00
74065;BME280;62421;51.412;5.432;2022-10-16T06:42:36;101156.06;;;9.56;100.00
74065;BME280;62421;51.412;5.432;2022-10-16T06:45:01;101167.56;;;9.58;100.00
74065;BME280;62421;51.412;5.432;2022-10-16T06:47:27;101167.28;;;9.63;100.00
74065;BME280;62421;51.412;5.432;2022-10-16T06:49:52;101175.16;;;9.66;100.00
74065;BME280;62421;51.412;5.432;2022-10-16T06:52:17;101176.78;;;9.69;100.00
74065;BME280;62421;51.412;5.432;2022-10-16T06:54:43;101183.00;;;9.69;100.00
74065;BME280;62421;51.412;5.432;2022-10-16T06:57:08;101183.78;;;9.71;100.00
74065;BME280;62421;51.412;5.432;2022-10-16T06:59:33;101189.34;;;9.68;100.00
74065;BME280;62421;51.412;5.432;2022-10-16T07:01:58;101188.38;;;9.69;100.00
74065;BME280;62421;51.412;5.432;2022-10-16T07:04:24;101191.06;;;9.69;100.00
74065;BME280;62421;51.412;5.432;2022-10-16T07:06:49;101194.41;;;9.73;100.00
74065;BME280;62421;51.412;5.432;2022-10-16T07:09:16;101199.59;;;9.76;100.00
74065;BME280;62421;51.412;5.432;2022-10-16T07:11:42;101209.16;;;9.80;100.00
74065;BME280;62421;51.412;5.432;2022-10-16T07:14:16;101213.47;;;9.82;100.00
74065;BME280;62421;51.412;5.432;2022-10-16T07:16:42;101212.16;;;9.90;100.00
74065;BME280;62421;51.412;5.432;2022-10-16T07:19:08;101211.97;;;9.93;100.00
74065;BME280;62421;51.412;5.432;2022-10-16T07:21:34;101227.84;;;9.96;100.00
74065;BME280;62421;51.412;5.432;2022-10-16T07:24:12;101226.72;;;10.00;100.00
74065;BME280;62421;51.412;5.432;2022-10-16T07:26:39;101230.00;;;10.05;100.00
74065;BME280;62421;51.412;5.432;2022-10-16T07:29:06;101234.88;;;10.13;100.00
74065;BME280;62421;51.412;5.432;2022-10-16T07:31:32;101237.84;;;10.22;100.00
74065;BME280;62421;51.412;5.432;2022-10-16T07:33:59;101241.09;;;10.28;100.00
74065;BME280;62421;51.412;5.432;2022-10-16T07:36:24;101249.09;;;10.29;100.00
74065;BME280;62421;51.412;5.432;2022-10-16T07:38:50;101252.66;;;10.30;100.00
74065;BME280;62421;51.412;5.432;2022-10-16T07:41:17;101252.94;;;10.39;100.00
74065;BME280;62421;51.412;5.432;2022-10-16T07:43:50;101259.84;;;10.43;100.00
74065;BME280;62421;51.412;5.432;2022-10-16T07:46:17;101258.50;;;10.51;100.00
74065;BME280;62421;51.412;5.432;2022-10-16T07:48:44;101260.78;;;10.57;100.00
74065;BME280;62421;51.412;5.432;2022-10-16T07:51:14;101270.19;;;10.64;100.00
74065;BME280;62421;51.412;5.432;2022-10-16T07:53:39;101268.84;;;10.71;100.00
74065;BME280;62421;51.412;5.432;2022-10-16T07:56:06;101272.84;;;10.78;100.00
74065;BME280;62421;51.412;5.432;2022-10-16T07:58:32;101273.88;;;10.90;100.00
74065;BME280;62421;51.412;5.432;2022-10-16T08:00:58;101283.06;;;11.00;100.00
74065;BME280;62421;51.412;5.432;2022-10-16T08:03:24;101299.47;;;11.10;100.00
74065;BME280;62421;51.412;5.432;2022-10-16T08:05:50;101293.66;;;11.16;100.00
74065;BME280;62421;51.412;5.432;2022-10-16T08:08:17;101299.41;;;11.24;100.00
74065;BME280;62421;51.412;5.432;2022-10-16T08:10:43;101301.69;;;11.31;100.00
74065;BME280;62421;51.412;5.432;2022-10-16T08:13:08;101305.25;;;11.31;100.00
74065;BME280;62421;51.412;5.432;2022-10-16T08:15:34;101314.06;;;11.33;100.00
74065;BME280;62421;51.412;5.432;2022-10-16T08:18:01;101310.03;;;11.40;100.00
74065;BME280;62421;51.412;5.432;2022-10-16T08:20:28;101318.56;;;11.47;100.00
74065;BME280;62421;51.412;5.432;2022-10-16T08:22:55;101326.63;;;11.47;100.00
74065;BME280;62421;51.412;5.432;2022-10-16T08:25:24;101320.94;;;11.52;100.00
74065;BME280;62421;51.412;5.432;2022-10-16T08:27:49;101326.22;;;11.53;100.00
74065;BME280;62421;51.412;5.432;2022-10-16T08:30:16;101318.69;;;11.58;100.00
74065;BME280;62421;51.412;5.432;2022-10-16T08:32:42;101325.59;;;11.62;100.00
74065;BME280;62421;51.412;5.432;2022-10-16T08:35:08;101320.75;;;11.67;100.00
74065;BME280;62421;51.412;5.432;2022-10-16T08:37:34;101328.66;;;11.71;100.00
74065;BME280;62421;51.412;5.432;2022-10-16T08:40:00;101331.88;;;11.76;100.00
74065;BME280;62421;51.412;5.432;2022-10-16T08:50:41;101350.16;;;11.98;100.00
74065;BME280;62421;51.412;5.432;2022-10-16T08:53:07;101350.41;;;12.07;100.00
74065;BME280;62421;51.412;5.432;2022-10-16T08:55:45;101357.19;;;12.13;100.00
74065;BME280;62421;51.412;5.432;2022-10-16T08:58:19;101359.44;;;12.19;100.00
74065;BME280;62421;51.412;5.432;2022-10-16T09:00:54;101355.38;;;12.26;100.00
74065;BME280;62421;51.412;5.432;2022-10-16T09:06:20;101357.88;;;12.42;100.00
74065;BME280;62421;51.412;5.432;2022-10-16T09:14:29;101371.44;;;12.66;100.00
74065;BME280;62421;51.412;5.432;2022-10-16T09:17:27;101370.06;;;12.74;100.00
74065;BME280;62421;51.412;5.432;2022-10-16T09:22:37;101371.41;;;12.92;100.00
74065;BME280;62421;51.412;5.432;2022-10-16T09:25:12;101372.94;;;12.96;100.00
74065;BME280;62421;51.412;5.432;2022-10-16T09:27:38;101378.63;;;13.04;100.00
74065;BME280;62421;51.412;5.432;2022-10-16T09:30:29;101386.19;;;13.12;100.00
74065;BME280;62421;51.412;5.432;2022-10-16T09:32:57;101381.19;;;13.19;100.00
74065;BME280;62421;51.412;5.432;2022-10-16T09:35:32;101384.00;;;13.30;100.00
74065;BME280;62421;51.412;5.432;2022-10-16T09:37:58;101393.47;;;13.36;100.00
74065;BME280;62421;51.412;5.432;2022-10-16T09:40:30;101387.75;;;13.40;99.12
74065;BME280;62421;51.412;5.432;2022-10-16T09:43:03;101392.47;;;13.49;98.79
74065;BME280;62421;51.412;5.432;2022-10-16T09:45:31;101398.69;;;13.63;97.36
74065;BME280;62421;51.412;5.432;2022-10-16T09:47:56;101389.03;;;13.71;97.13
74065;BME280;62421;51.412;5.432;2022-10-16T09:50:27;101399.47;;;13.76;96.15
74065;BME280;62421;51.412;5.432;2022-10-16T09:53:10;101390.72;;;13.85;97.33
74065;BME280;62421;51.412;5.432;2022-10-16T09:55:36;101390.47;;;13.88;94.80
74065;BME280;62421;51.412;5.432;2022-10-16T09:58:01;101394.31;;;13.97;93.63
74065;BME280;62421;51.412;5.432;2022-10-16T10:00:27;101388.56;;;14.02;93.49
74065;BME280;62421;51.412;5.432;2022-10-16T10:02:53;101396.75;;;14.00;93.56
74065;BME280;62421;51.412;5.432;2022-10-16T10:05:28;101389.41;;;14.02;95.33
74065;BME280;62421;51.412;5.432;2022-10-16T10:07:58;101398.03;;;14.07;95.22
74065;BME280;62421;51.412;5.432;2022-10-16T10:10:30;101398.53;;;14.12;94.22
74065;BME280;62421;51.412;5.432;2022-10-16T10:12:56;101401.53;;;14.21;92.56
74065;BME280;62421;51.412;5.432;2022-10-16T10:15:22;101401.28;;;14.24;91.81
74065;BME280;62421;51.412;5.432;2022-10-16T10:17:53;101407.41;;;14.26;91.66
74065;BME280;62421;51.412;5.432;2022-10-16T10:20:26;101404.88;;;14.36;91.46
74065;BME280;62421;51.412;5.432;2022-10-16T10:22:53;101408.72;;;14.44;91.57
74065;BME280;62421;51.412;5.432;2022-10-16T10:33:35;101420.75;;;14.76;91.51
74065;BME280;62421;51.412;5.432;2022-10-16T10:39:13;101425.78;;;14.80;90.12
74065;BME280;62421;51.412;5.432;2022-10-16T10:48:01;101427.88;;;14.99;88.89
74065;BME280;62421;51.412;5.432;2022-10-16T10:50:35;101425.03;;;15.12;85.13
74065;BME280;62421;51.412;5.432;2022-10-16T10:59:07;101427.00;;;14.76;87.91
74065;BME280;62421;51.412;5.432;2022-10-16T11:01:52;101432.97;;;14.57;89.14
74065;BME280;62421;51.412;5.432;2022-10-16T11:07:15;101432.13;;;14.57;87.84
74065;BME280;62421;51.412;5.432;2022-10-16T11:09:53;101425.63;;;14.70;88.18
74065;BME280;62421;51.412;5.432;2022-10-16T11:12:21;101425.31;;;14.86;85.48
74065;BME280;62421;51.412;5.432;2022-10-16T11:17:45;101428.63;;;15.24;87.07
74065;BME280;62421;51.412;5.432;2022-10-16T11:21:00;101425.38;;;15.52;84.25
74065;BME280;62421;51.412;5.432;2022-10-16T11:23:28;101441.75;;;15.73;84.46
74065;BME280;62421;51.412;5.432;2022-10-16T11:25:59;101443.84;;;15.81;79.11
74065;BME280;62421;51.412;5.432;2022-10-16T11:28:32;101446.00;;;15.87;81.20
74065;BME280;62421;51.412;5.432;2022-10-16T11:31:18;101440.25;;;15.81;81.96
74065;BME280;62421;51.412;5.432;2022-10-16T11:36:38;101447.44;;;15.36;81.86
74065;BME280;62421;51.412;5.432;2022-10-16T11:41:37;101447.19;;;15.17;81.91
74065;BME280;62421;51.412;5.432;2022-10-16T11:47:08;101442.88;;;15.03;84.23
74065;BME280;62421;51.412;5.432;2022-10-16T11:49:37;101448.91;;;15.07;82.31
74065;BME280;62421;51.412;5.432;2022-10-16T11:52:30;101448.16;;;15.16;83.90
74065;BME280;62421;51.412;5.432;2022-10-16T11:55:14;101449.53;;;15.22;82.34
74065;BME280;62421;51.412;5.432;2022-10-16T11:57:53;101438.69;;;15.33;81.62
74065;BME280;62421;51.412;5.432;2022-10-16T12:02:58;101438.47;;;15.36;82.52
74065;BME280;62421;51.412;5.432;2022-10-16T12:08:13;101446.69;;;15.12;81.79
74065;BME280;62421;51.412;5.432;2022-10-16T12:10:41;101444.59;;;15.15;79.97
74065;BME280;62421;51.412;5.432;2022-10-16T12:13:36;101452.59;;;15.17;83.22
74065;BME280;62421;51.412;5.432;2022-10-16T12:18:37;101457.63;;;15.22;81.22
74065;BME280;62421;51.412;5.432;2022-10-16T12:21:03;101450.88;;;15.16;81.97
74065;BME280;62421;51.412;5.432;2022-10-16T12:23:49;101459.25;;;15.13;81.77
74065;BME280;62421;51.412;5.432;2022-10-16T12:26:33;101451.00;;;15.26;81.38
74065;BME280;62421;51.412;5.432;2022-10-16T12:29:22;101445.41;;;15.61;79.92
74065;BME280;62421;51.412;5.432;2022-10-16T12:31:49;101441.31;;;16.01;74.85
74065;BME280;62421;51.412;5.432;2022-10-16T12:34:23;101449.78;;;16.40;79.51
74065;BME280;62421;51.412;5.432;2022-10-16T12:36:51;101445.44;;;16.69;74.86
74065;BME280;62421;51.412;5.432;2022-10-16T12:39:23;101444.03;;;16.96;76.53
74065;BME280;62421;51.412;5.432;2022-10-16T12:42:00;101446.94;;;17.04;75.67
74065;BME280;62421;51.412;5.432;2022-10-16T12:44:32;101440.16;;;16.89;74.49
74065;BME280;62421;51.412;5.432;2022-10-16T12:46:58;101447.66;;;16.64;73.43
74065;BME280;62421;51.412;5.432;2022-10-16T12:49:49;101448.03;;;16.38;77.14
74065;BME280;62421;51.412;5.432;2022-10-16T12:52:35;101448.88;;;16.18;77.80
74065;BME280;62421;51.412;5.432;2022-10-16T12:55:03;101445.59;;;16.03;75.54
74065;BME280;62421;51.412;5.432;2022-10-16T13:00:20;101437.19;;;15.85;78.67
74065;BME280;62421;51.412;5.432;2022-10-16T13:03:04;101437.66;;;15.68;77.46
74065;BME280;62421;51.412;5.432;2022-10-16T13:06:08;101437.22;;;15.51;79.90
74065;BME280;62421;51.412;5.432;2022-10-16T13:19:48;101449.13;;;15.60;80.99
74065;BME280;62421;51.412;5.432;2022-10-16T13:22:34;101452.31;;;15.76;81.54
74065;BME280;62421;51.412;5.432;2022-10-16T13:27:55;101452.16;;;16.01;79.54
74065;BME280;62421;51.412;5.432;2022-10-16T13:30:33;101463.44;;;16.06;79.62
74065;BME280;62421;51.412;5.432;2022-10-16T13:33:06;101465.66;;;16.12;79.11
74065;BME280;62421;51.412;5.432;2022-10-16T13:35:34;101462.88;;;16.23;77.88
74065;BME280;62421;51.412;5.432;2022-10-16T13:38:16;101467.28;;;16.35;79.19
74065;BME280;62421;51.412;5.432;2022-10-16T13:41:01;101476.53;;;16.54;78.97
74065;BME280;62421;51.412;5.432;2022-10-16T13:43:35;101469.81;;;16.69;76.49
74065;BME280;62421;51.412;5.432;2022-10-16T13:46:10;101458.19;;;16.78;75.94
74065;BME280;62421;51.412;5.432;2022-10-16T13:48:36;101466.66;;;16.85;75.40
74065;BME280;62421;51.412;5.432;2022-10-16T13:51:06;101460.84;;;16.90;76.17
74065;BME280;62421;51.412;5.432;2022-10-16T13:53:35;101466.00;;;16.93;75.87
74065;BME280;62421;51.412;5.432;2022-10-16T13:56:05;101467.00;;;16.92;76.60
74065;BME280;62421;51.412;5.432;2022-10-16T13:58:32;101470.72;;;16.91;74.90
74065;BME280;62421;51.412;5.432;2022-10-16T14:01:24;101466.88;;;16.93;78.92
74065;BME280;62421;51.412;5.432;2022-10-16T14:03:51;101472.75;;;16.98;76.58
74065;BME280;62421;51.412;5.432;2022-10-16T14:06:20;101483.19;;;17.03;76.12
74065;BME280;62421;51.412;5.432;2022-10-16T14:09:11;101480.63;;;17.02;78.57
74065;BME280;62421;51.412;5.432;2022-10-16T14:11:47;101474.41;;;16.90;77.15
74065;BME280;62421;51.412;5.432;2022-10-16T14:14:13;101467.81;;;16.83;77.18
74065;BME280;62421;51.412;5.432;2022-10-16T14:16:41;101481.25;;;16.73;77.57
74065;BME280;62421;51.412;5.432;2022-10-16T14:19:17;101468.94;;;16.69;78.04
74065;BME280;62421;51.412;5.432;2022-10-16T14:21:43;101466.22;;;16.69;79.82
74065;BME280;62421;51.412;5.432;2022-10-16T14:24:13;101458.09;;;16.69;79.66
74065;BME280;62421;51.412;5.432;2022-10-16T14:26:46;101451.69;;;16.70;80.86
74065;BME280;62421;51.412;5.432;2022-10-16T14:29:17;101462.88;;;16.76;80.20
74065;BME280;62421;51.412;5.432;2022-10-16T14:31:57;101467.06;;;16.81;80.07
74065;BME280;62421;51.412;5.432;2022-10-16T14:34:53;101452.66;;;16.80;81.62
74065;BME280;62421;51.412;5.432;2022-10-16T14:37:24;101442.88;;;16.77;81.32
74065;BME280;62421;51.412;5.432;2022-10-16T14:39:51;101452.75;;;16.78;80.51